Terminal Aerodrome Forecast
Issued by NWS

Current Version | Previous Version | Text Only | Print | Product List | Glossary On
Versions: 1 2 3 4 5 6 7 8 9 10 11 12 13 14 15 16 17
000
FTUS41 KPBZ 231631 AAB
TAFDUJ
TAF AMD
KDUJ 231631Z 2317/2412 19006KT 3SM -SHRA BR OVC005
     FM231800 23011KT 5SM SHRA VCTS OVC015CB
     FM240000 23008KT 3SM SHRA BR OVC008
     FM240400 26004KT P6SM VCSH OVC004=

USA.gov is the U.S. government's official web portal to all federal, state and local government web resources and services.